Share

Fairmont, MN

Fairmont Municipal (KFRM) Elev 1161 ft | 43.65 °N, 94.42 °W | Change Station

Current weather conditions updated 7 minutes ago

Clear
Clear
48 °F
Feels Like 48 °F
N
17
Wind Variable Wind from SE
Sunrise 6:28 AM
Sunset 8:06 PM
Moon Waning Gibbous

Today is forecast to be Much Warmer than yesterday.

Pressure 30.11 in
Visibility 10.0 miles
Clouds Clear
Dew Point 28 °F
Humidity 46%
Rainfall 0.00 in
Snow Depth Not available.
UV 0 out of 16
Pollen 9.70 out of 12
Air Quality Not available.
Flu Activity Sporadic
METAR KFRM 190515Z 14015KT 10SM CLR 09/M02 A3011 RMK AO1

More Conditions Fewer Conditions

Pressure 30.11 in
Visibility 10.0 miles
Clouds Clear
Dew Point 28 °F
Humidity 46%
Rainfall 0.00 in
Snow Depth Not available.
UV 0 out of 16
Pollen 9.70 out of 12
Air Quality Not available.
Flu Activity Sporadic
METAR KFRM 190515Z 14015KT 10SM CLR 09/M02 A3011 RMK AO1

More Conditions Fewer Conditions

10-Day Weather Forecast

Almanac

Astronomy

Apr. 19, 2014 Rise Set
Actual Time 6:28 AM CDT 8:06 PM CDT
Civil Twilight 5:58 AM CDT 8:36 PM CDT
Nautical Twilight 5:21 AM CDT 9:13 PM CDT
Astronomical Twilight 4:42 AM CDT 9:52 PM CDT
Moon No Moon Rise 9:43 AM CDT
Length of Visible Light 14h 38m
Length of Day
13h 37m
Tomorrow will be 2m 48s longer.
Waning Gibbous, 83% of the Moon is Illuminated
Today
Waning Gibbous
Apr 22
Last Quarter
Apr 29
New
May 6
First Quarter
May 14
Full

Today's Extremes

State Highs State Lows

Community

  • Sunset Silhouettes
    Sunset Silhouettes
  • FL sunset Perico Isle
    FL sunset Perico Isle
  • Cloudy spring view
    Cloudy spring view
  • Old barn
    Old barn
  • What's for Lunch?
    What's for Lunch?

WunderPhotos

Upload Photos

1,702,647 photos uploaded!

WunderBlogs® & News

Nearby

Snow Depth

Station Depth Elevation
No new snow has been reported.

Coastal Water Temperatures

Place Temperature
No Stations Reporting

Earthquake Activity

City Distance Mag. Time & Date
No recent earthquake activity has been reported nearby.
Minimum magnitude displayed is 2.5.

Nearby Weather Stations

Station Location Temp. Windchill Dew Point Humidity Wind Precip. Elev Updated Type
Golly Farms 2, Winnebago, MN 47.9 °F 44 °F 35 °F 61% East  at  8.0 mph 0.00 in / hr 1096 ft 12:21 AM CDT Normal
Golly Farms, Winnebago, MN 47.0 °F 47 °F 35 °F 62% ESE  at  0.0 mph 0.00 in / hr 1079 ft 12:21 AM CDT Rapid Fire
Leading Edge Technologies, Winnebago, MN 46.0 °F 44 °F 34 °F 63% SE  at  5.0 mph 0.00 in / hr 1119 ft 12:15 AM CDT Normal
Faribault County Law Enforcement Center, Blue Earth, MN 48.2 °F 43 °F 32 °F 54% South  at  11.0 mph 0.00 in / hr 1079 ft 12:08 AM CDT Normal

Show More Stations Show Fewer Stations

What do you think?

We're not finished. Please let us know what you like, what you don't like, and what you are still missing.